Terminal Aerodrome Forecast
Issued by NWS Charleston, WV

Current Version | Previous Version | Text Only | Print | Product List | Glossary Off
Versions: 1 2 3 4 5 6 7 8 9 10 11 12 13 14 15 16 17 18 19 20 21 22 23 24 25 26

055
FTUS41 KRLX 272332 AAB
TAFEKN
TAF AMD
KEKN 272332Z 2800/2818 VRB04KT 4SM -RA BKN040 OVC070
     FM280300 25004KT P6SM SCT020
     FM280700 VRB03KT 2SM BR FEW070
     FM280800 00000KT 1/4SM FG FEW070
     FM281200 VRB03KT 1 1/2SM BR FEW100
     FM281300 VRB03KT P6SM SKC=

USA.gov is the U.S. government's official web portal to all federal, state and local government web resources and services.